KWRB/WRB METAR and TAF weather

Enter ICAO airport designator
Station Type Date Time Source
KWRB METAR 2020/07/12 01:56 UTC NOAA

KWRB 120156Z 00000KT 10SM CLR 27/21 A2989 RMK AO2A SLP121 T02680206 $


Station Type Date Time Source
KWRB Decoded METAR 2020/07/12 01:56 UTC NOAA

Warner Robins Air Force Base, GA, United States (KWRB) 32-38N 083-36W
Jul 11, 2020 - 09:56 PM EDT / 2020.07.12 0156 UTC
Wind: Calm:0
Visibility: 10 mile(s):0
Sky conditions: clear
Temperature: 80.2 F (26.8 C)
Dew Point: 69.1 F (20.6 C)
Relative Humidity: 68%
Pressure (altimeter): 29.89 in. Hg (1012 hPa)
ob: KWRB 120156Z 00000KT 10SM CLR 27/21 A2989 RMK AO2A SLP121 T02680206
cycle: 2

Station Type Date Time Source
KWRB TAF 2020/07/11 21:03 UTC NOAA

TAF KWRB 112100Z 1121/1303 33010KT 9999 FEW045 QNH2978INS TX35/1221Z TN20/1211Z

Example: see airport list